createdAt,value
2023-07-02T00:00:42.706Z,17.4
2023-07-02T00:02:43.121Z,17.5
2023-07-02T00:04:42.807Z,17.3
2023-07-02T00:06:42.904Z,17.3
2023-07-02T00:08:44.117Z,17.5
2023-07-02T00:10:41.683Z,17.5
2023-07-02T00:12:42.678Z,17.4
2023-07-02T00:14:45.389Z,17.4
2023-07-02T00:16:41.074Z,17.2
2023-07-02T00:18:42.900Z,17.1
2023-07-02T00:20:42.981Z,17.2
2023-07-02T00:22:42.480Z,17.1
2023-07-02T00:24:42.691Z,17.1
2023-07-02T00:26:44.140Z,17.4
2023-07-02T00:28:41.244Z,17.2
2023-07-02T00:30:45.128Z,17
2023-07-02T00:32:43.044Z,17.3
2023-07-02T00:36:43.282Z,16.9
2023-07-02T00:38:42.954Z,16.9
2023-07-02T00:40:42.915Z,17
2023-07-02T00:42:43.523Z,17.1
2023-07-02T00:44:42.852Z,17.2
2023-07-02T00:46:42.871Z,17.1
2023-07-02T00:48:44.117Z,17
2023-07-02T00:50:43.864Z,17.3
2023-07-02T00:52:41.605Z,17.1
2023-07-02T00:54:45.249Z,17
2023-07-02T00:56:48.422Z,17
2023-07-02T00:58:45.188Z,17.1
2023-07-02T01:00:43.075Z,17.1
2023-07-02T01:04:48.435Z,17.1
2023-07-02T01:06:43.142Z,17.3
2023-07-02T01:08:41.473Z,17.1
2023-07-02T01:10:49.109Z,17.1
2023-07-02T01:12:43.070Z,17.1
2023-07-02T01:14:45.463Z,17.3
2023-07-02T01:16:40.396Z,17.1
2023-07-02T01:18:42.210Z,17.2
2023-07-02T01:22:42.372Z,17.3
2023-07-02T01:26:43.228Z,17
2023-07-02T01:28:41.493Z,16.1
2023-07-02T01:32:43.071Z,15.3
2023-07-02T01:34:40.996Z,15.2
2023-07-02T01:36:42.842Z,15.3
2023-07-02T01:38:43.921Z,15.1
2023-07-02T01:40:43.014Z,15.3
2023-07-02T01:44:48.798Z,15.4
2023-07-02T01:46:42.993Z,15.5
2023-07-02T01:48:42.354Z,15.6
2023-07-02T01:50:44.093Z,16.1
2023-07-02T01:52:43.041Z,16
2023-07-02T01:54:42.880Z,15.8
2023-07-02T01:56:43.580Z,15.6
2023-07-02T01:58:48.897Z,15.4
2023-07-02T02:00:43.577Z,15.5
2023-07-02T02:02:46.253Z,15.7
2023-07-02T02:04:48.750Z,15.7
2023-07-02T02:06:43.905Z,15.9
2023-07-02T02:08:42.746Z,15.7
2023-07-02T02:10:42.685Z,15.7
2023-07-02T02:12:43.260Z,15.5
2023-07-02T02:14:42.799Z,15.8
2023-07-02T02:16:43.135Z,15.7
2023-07-02T02:18:43.156Z,15.8
2023-07-02T02:20:43.238Z,15.7
2023-07-02T02:22:42.440Z,15.6
2023-07-02T02:24:45.613Z,15.7
2023-07-02T02:26:43.456Z,15.8
2023-07-02T02:28:42.491Z,15.7
2023-07-02T02:30:42.801Z,16.1
2023-07-02T02:32:42.780Z,15.9
2023-07-02T02:34:42.645Z,15.9
2023-07-02T02:36:43.444Z,15.9
2023-07-02T02:40:42.024Z,15.6
2023-07-02T02:42:43.405Z,15.6
2023-07-02T02:44:43.144Z,15.7
2023-07-02T02:46:43.743Z,15.5
2023-07-02T02:50:48.920Z,15.7
2023-07-02T02:52:42.864Z,15.5
2023-07-02T02:54:42.770Z,15.3
2023-07-02T02:56:43.269Z,15.3
2023-07-02T02:58:42.896Z,15.3
2023-07-02T03:02:43.400Z,15.8
2023-07-02T03:04:43.311Z,15.5
2023-07-02T03:06:42.800Z,15.4
2023-07-02T03:08:45.855Z,15.4
2023-07-02T03:10:42.477Z,15.4
2023-07-02T03:14:43.320Z,15.5
2023-07-02T03:16:45.807Z,15
2023-07-02T03:18:42.855Z,15.3
2023-07-02T03:20:43.174Z,15.3
2023-07-02T03:22:46.570Z,15.2
2023-07-02T03:24:42.897Z,15.2
2023-07-02T03:26:43.063Z,15.4
2023-07-02T03:28:46.058Z,15.5
2023-07-02T03:30:49.059Z,15.4
2023-07-02T03:32:43.622Z,15.3
2023-07-02T03:34:40.714Z,15.8
2023-07-02T03:36:42.899Z,15.7
2023-07-02T03:38:42.505Z,15.4
2023-07-02T03:40:44.394Z,15.5
2023-07-02T03:42:45.420Z,15.5
2023-07-02T03:44:45.580Z,15.8
2023-07-02T03:46:43.104Z,15.6
2023-07-02T03:48:45.814Z,15.6
2023-07-02T03:50:48.894Z,15.3
2023-07-02T03:52:42.932Z,15.7
2023-07-02T03:54:42.827Z,15.6
2023-07-02T03:56:43.708Z,15.8
2023-07-02T03:58:41.576Z,15.7
2023-07-02T04:00:42.429Z,15.9
2023-07-02T04:02:43.340Z,15.9
2023-07-02T04:04:41.682Z,15.6
2023-07-02T04:06:42.851Z,15.7
2023-07-02T04:08:43.253Z,15.3
2023-07-02T04:10:43.143Z,15.5
2023-07-02T04:12:42.880Z,15.4
2023-07-02T04:14:42.805Z,15.6
2023-07-02T04:16:49.011Z,15.5
2023-07-02T04:20:42.005Z,15.4
2023-07-02T04:24:46.124Z,15.5
2023-07-02T04:26:51.240Z,15.2
2023-07-02T04:32:43.263Z,16
2023-07-02T04:34:42.566Z,16.1
2023-07-02T04:36:42.852Z,16.3
2023-07-02T04:38:43.414Z,16.6
2023-07-02T04:40:42.542Z,16.6
2023-07-02T04:42:43.403Z,16.5
2023-07-02T04:44:42.845Z,16.4
2023-07-02T04:46:49.014Z,16.3
2023-07-02T04:48:49.380Z,16.1
2023-07-02T04:50:43.694Z,16.5
2023-07-02T04:52:42.455Z,16
2023-07-02T04:54:43.166Z,16.1
2023-07-02T04:56:42.967Z,16
2023-07-02T04:58:46.383Z,16.3
2023-07-02T05:00:42.462Z,16.3
2023-07-02T05:02:43.026Z,16.2
2023-07-02T05:04:43.212Z,16.1
2023-07-02T05:06:43.136Z,16.4
2023-07-02T05:08:43.159Z,16.1
2023-07-02T05:10:42.972Z,16.3
2023-07-02T05:12:43.136Z,16.4
2023-07-02T05:14:43.404Z,16.3
2023-07-02T05:16:42.963Z,16.2
2023-07-02T05:18:42.991Z,16.1
2023-07-02T05:20:43.100Z,16
2023-07-02T05:22:43.004Z,16
2023-07-02T05:24:43.348Z,16.1
2023-07-02T05:26:43.473Z,15.9
2023-07-02T05:28:46.103Z,16.2
2023-07-02T05:30:43.123Z,16.1
2023-07-02T05:32:43.354Z,16.5
2023-07-02T05:34:42.936Z,16.3
2023-07-02T05:36:43.659Z,16.7
2023-07-02T05:38:44.144Z,16.2
2023-07-02T05:40:46.129Z,16.2
2023-07-02T05:42:43.524Z,16.2
2023-07-02T05:44:42.942Z,16.5
2023-07-02T05:46:45.568Z,16.8
2023-07-02T05:48:43.846Z,16.6
2023-07-02T05:50:49.727Z,16.5
2023-07-02T05:52:43.262Z,16.4
2023-07-02T05:54:45.698Z,16.3
2023-07-02T05:56:43.250Z,16.4
2023-07-02T05:58:48.337Z,15.9
2023-07-02T06:00:47.146Z,15.6
2023-07-02T06:04:43.432Z,15.6
2023-07-02T06:06:43.986Z,15.6
2023-07-02T06:08:43.144Z,15.6
2023-07-02T06:10:47.317Z,15.3
2023-07-02T06:12:43.244Z,15.1
2023-07-02T06:14:43.937Z,15.4
2023-07-02T06:16:42.667Z,15.2
2023-07-02T06:18:43.457Z,15.1
2023-07-02T06:22:46.510Z,15.3
2023-07-02T06:24:43.667Z,15.3
2023-07-02T06:26:43.416Z,15
2023-07-02T06:28:48.055Z,14.8
2023-07-02T06:30:45.216Z,14.8
2023-07-02T06:32:44.096Z,14.6
2023-07-02T06:34:45.453Z,14.5
2023-07-02T06:36:46.411Z,14.5
2023-07-02T06:38:44.919Z,14.4
2023-07-02T06:40:46.979Z,14.5
2023-07-02T06:42:46.424Z,14.5
2023-07-02T06:44:42.757Z,14.5
2023-07-02T06:46:42.264Z,14.5
2023-07-02T06:48:50.764Z,14.5
2023-07-02T06:50:41.772Z,14.4
2023-07-02T06:52:44.321Z,14.7
2023-07-02T06:54:43.913Z,14.5
2023-07-02T06:56:47.243Z,14.4
2023-07-02T06:58:44.086Z,14.6
2023-07-02T07:00:46.252Z,14.5
2023-07-02T07:02:43.195Z,14.6
2023-07-02T07:04:44.329Z,14.8
2023-07-02T07:06:44.243Z,15
2023-07-02T07:08:43.256Z,14.9
2023-07-02T07:10:42.222Z,15
2023-07-02T07:12:43.294Z,14.8
2023-07-02T07:14:42.376Z,14.9
2023-07-02T07:16:44.416Z,15.2
2023-07-02T07:18:43.196Z,15.6
2023-07-02T07:20:43.987Z,15.8
2023-07-02T07:22:48.282Z,16
2023-07-02T07:24:47.322Z,16.2
2023-07-02T07:26:42.777Z,16.8
2023-07-02T07:28:47.189Z,17.1
2023-07-02T07:30:43.719Z,17.1
2023-07-02T07:32:43.215Z,18.3
2023-07-02T07:34:50.340Z,18.8
2023-07-02T07:36:43.168Z,19.7
2023-07-02T07:38:42.917Z,19.7
2023-07-02T07:40:44.525Z,20.1
2023-07-02T07:42:43.020Z,19.6
2023-07-02T07:44:42.916Z,20.1
2023-07-02T07:46:42.646Z,20
2023-07-02T07:48:44.501Z,20.3
2023-07-02T07:50:42.831Z,20.4
2023-07-02T07:52:42.614Z,19.4
2023-07-02T07:56:45.856Z,19.8
2023-07-02T07:58:43.596Z,19.7
2023-07-02T08:00:43.196Z,19.6
2023-07-02T08:02:43.390Z,18.6
2023-07-02T08:04:41.037Z,18.1
2023-07-02T08:06:48.876Z,18.4
2023-07-02T08:08:43.728Z,18.7
2023-07-02T08:10:42.502Z,18.5
2023-07-02T08:12:42.849Z,18.9
2023-07-02T08:14:42.746Z,18.8
2023-07-02T08:16:42.748Z,18.8
2023-07-02T08:18:43.285Z,18.8
2023-07-02T08:20:42.862Z,18.6
2023-07-02T08:22:42.671Z,18.5
2023-07-02T08:26:42.840Z,18.7
2023-07-02T08:28:43.787Z,18.5
2023-07-02T08:30:41.253Z,19.2
2023-07-02T08:32:43.798Z,19.7
2023-07-02T08:36:43.740Z,19.1
2023-07-02T08:38:46.514Z,18.6
2023-07-02T08:40:42.945Z,18
2023-07-02T08:44:45.986Z,18.4
2023-07-02T08:46:44.138Z,18.7
2023-07-02T08:48:42.513Z,18.9
2023-07-02T08:50:43.289Z,18.8
2023-07-02T08:52:42.099Z,18.6
2023-07-02T08:54:43.350Z,18.7
2023-07-02T08:56:42.848Z,19.3
2023-07-02T08:58:42.612Z,19.1
2023-07-02T09:00:41.517Z,20.5
2023-07-02T09:02:43.206Z,20.8
2023-07-02T09:04:45.168Z,20.9
2023-07-02T09:06:43.198Z,20.7
2023-07-02T09:08:43.738Z,20.9
2023-07-02T09:10:41.975Z,20.6
2023-07-02T09:12:47.542Z,20.7
2023-07-02T09:14:42.265Z,20.5
2023-07-02T09:16:43.287Z,20.8
2023-07-02T09:18:43.454Z,20.7
2023-07-02T09:20:43.946Z,20.7
2023-07-02T09:22:42.702Z,20.9
2023-07-02T09:24:45.366Z,21.1
2023-07-02T09:26:43.702Z,21.2
2023-07-02T09:28:41.813Z,21.2
2023-07-02T09:30:43.643Z,21.2
2023-07-02T09:32:44.707Z,21.2
2023-07-02T09:34:42.857Z,21.1
2023-07-02T09:36:43.686Z,21.2
2023-07-02T09:38:43.678Z,21.1
2023-07-02T09:40:43.459Z,20.8
2023-07-02T09:42:43.908Z,21.3
2023-07-02T09:44:44.351Z,21.3
2023-07-02T09:46:43.141Z,21.3
2023-07-02T09:48:43.585Z,21.3
2023-07-02T09:50:43.774Z,21.3
2023-07-02T09:52:45.033Z,21.5
2023-07-02T09:54:43.877Z,21.7
2023-07-02T09:56:44.387Z,21.9
2023-07-02T09:58:43.090Z,21.9
2023-07-02T10:00:44.331Z,21.9
2023-07-02T10:02:43.219Z,22
2023-07-02T10:04:43.768Z,21.9
2023-07-02T10:06:43.802Z,21.8
2023-07-02T10:08:41.704Z,22
2023-07-02T10:10:44.075Z,22.1
2023-07-02T10:12:44.092Z,22
2023-07-02T10:14:44.213Z,22.1
2023-07-02T10:16:42.364Z,22.1
2023-07-02T10:18:43.807Z,22.3
2023-07-02T10:20:44.579Z,22.4
2023-07-02T10:22:42.754Z,22.3
2023-07-02T10:24:43.780Z,22.4
2023-07-02T10:26:44.898Z,22.6
2023-07-02T10:28:42.761Z,22.6
2023-07-02T10:30:43.635Z,22.7
2023-07-02T10:32:43.630Z,22.6
2023-07-02T10:34:41.221Z,22.3
2023-07-02T10:36:43.824Z,21.9
2023-07-02T10:38:40.870Z,21.9
2023-07-02T10:40:42.019Z,21.9
2023-07-02T10:44:43.700Z,22
2023-07-02T10:46:41.539Z,22.2
2023-07-02T10:48:44.784Z,22.4
2023-07-02T10:50:44.192Z,22.6
2023-07-02T10:52:41.729Z,22.7
2023-07-02T10:54:42.555Z,22.6
2023-07-02T10:56:42.280Z,22.5
2023-07-02T10:58:49.626Z,22.4
2023-07-02T11:00:43.901Z,22.5
2023-07-02T11:02:44.337Z,22.5
2023-07-02T11:04:44.012Z,22.6
2023-07-02T11:06:50.020Z,22.8
2023-07-02T11:08:44.012Z,22.8
2023-07-02T11:10:43.617Z,22.9
2023-07-02T11:12:45.078Z,22.9
2023-07-02T11:14:43.695Z,22.9
2023-07-02T11:16:41.372Z,23.1
2023-07-02T11:18:43.738Z,23.2
2023-07-02T11:20:43.888Z,23
2023-07-02T11:22:42.429Z,22.8
2023-07-02T11:24:44.252Z,22.4
2023-07-02T11:26:43.625Z,22.5
2023-07-02T11:28:42.987Z,22.7
2023-07-02T11:30:44.557Z,22.8
2023-07-02T11:32:44.627Z,22.8
2023-07-02T11:34:41.087Z,22.8
2023-07-02T11:36:43.400Z,22.7
2023-07-02T11:38:43.759Z,22.7
2023-07-02T11:40:42.775Z,22.7
2023-07-02T11:42:43.730Z,22.7
2023-07-02T11:44:44.329Z,22.9
2023-07-02T11:46:42.929Z,22.9
2023-07-02T11:48:43.805Z,22.9
2023-07-02T11:50:44.296Z,22.8
2023-07-02T11:52:42.640Z,22.8
2023-07-02T11:56:42.465Z,23.1
2023-07-02T11:58:41.949Z,23.1
2023-07-02T12:00:42.068Z,23.1
2023-07-02T12:02:44.473Z,23.2
2023-07-02T12:04:42.844Z,23.1
2023-07-02T12:06:43.864Z,23
2023-07-02T12:08:48.190Z,22.9
2023-07-02T12:10:45.469Z,22.9
2023-07-02T12:12:43.131Z,22.8
2023-07-02T12:14:44.000Z,22.8
2023-07-02T12:16:43.404Z,22.7
2023-07-02T12:18:44.383Z,22.9
2023-07-02T12:20:43.407Z,22.9
2023-07-02T12:22:48.658Z,23.1
2023-07-02T12:24:41.388Z,23.1
2023-07-02T12:26:44.017Z,23.2
2023-07-02T12:28:48.590Z,23.2
2023-07-02T12:30:44.383Z,23.1
2023-07-02T12:34:41.190Z,23.1
2023-07-02T12:38:44.039Z,23
2023-07-02T12:40:41.877Z,23.1
2023-07-02T12:44:43.482Z,23.2
2023-07-02T12:46:43.725Z,23
2023-07-02T12:48:44.229Z,23
2023-07-02T12:50:43.737Z,23
2023-07-02T12:52:41.044Z,23
2023-07-02T12:56:45.474Z,23.1
2023-07-02T12:58:43.227Z,23
2023-07-02T13:00:44.089Z,22.9
2023-07-02T13:02:50.023Z,22.8
2023-07-02T13:04:43.328Z,22.9
2023-07-02T13:08:43.304Z,23.3
2023-07-02T13:10:45.627Z,23.4
2023-07-02T13:12:43.768Z,23.4
2023-07-02T13:16:40.903Z,23.4
2023-07-02T13:18:43.231Z,23.3
2023-07-02T13:20:44.638Z,23.2
2023-07-02T13:22:42.407Z,23.2
2023-07-02T13:26:45.800Z,23.5
2023-07-02T13:28:42.430Z,23.8
2023-07-02T13:30:43.834Z,23.8
2023-07-02T13:34:43.380Z,23.6
2023-07-02T13:36:43.985Z,23.5
2023-07-02T13:38:43.927Z,23.4
2023-07-02T13:40:41.131Z,23.4
2023-07-02T13:42:43.571Z,23.3
2023-07-02T13:44:43.821Z,23.3
2023-07-02T13:46:42.472Z,23.3
2023-07-02T13:48:44.093Z,23.4
2023-07-02T13:50:45.463Z,23.4
2023-07-02T13:52:43.623Z,23.4
2023-07-02T13:54:44.049Z,23.4
2023-07-02T13:58:44.498Z,23.3
2023-07-02T14:00:43.595Z,23.3
2023-07-02T14:02:44.699Z,23.3
2023-07-02T14:04:41.833Z,23.3
2023-07-02T14:06:43.829Z,23.5
2023-07-02T14:08:43.832Z,23.5
2023-07-02T14:10:42.755Z,23.5
2023-07-02T14:12:43.737Z,23.5
2023-07-02T14:14:43.984Z,23.4
2023-07-02T14:16:43.285Z,23.4
2023-07-02T14:18:44.127Z,23.4
2023-07-02T14:20:43.572Z,23.5
2023-07-02T14:22:41.959Z,23.6
2023-07-02T14:26:44.474Z,23.6
2023-07-02T14:28:42.027Z,23.6
2023-07-02T14:30:43.773Z,23.5
2023-07-02T14:32:44.103Z,23.6
2023-07-02T14:34:44.264Z,23.6
2023-07-02T14:36:43.820Z,23.6
2023-07-02T14:40:41.482Z,23.7
2023-07-02T14:42:43.650Z,23.6
2023-07-02T14:44:44.088Z,23.6
2023-07-02T14:46:44.402Z,23.5
2023-07-02T14:48:44.178Z,23.5
2023-07-02T14:50:44.462Z,23.6
2023-07-02T14:52:42.923Z,23.7
2023-07-02T14:54:43.613Z,23.7
2023-07-02T14:56:43.803Z,23.8
2023-07-02T14:58:40.713Z,23.8
2023-07-02T15:00:43.761Z,23.7
2023-07-02T15:04:41.473Z,23.7
2023-07-02T15:06:43.855Z,23.8
2023-07-02T15:08:43.868Z,23.9
2023-07-02T15:10:41.987Z,24
2023-07-02T15:12:43.667Z,24
2023-07-02T15:14:43.794Z,23.9
2023-07-02T15:16:45.489Z,23.9
2023-07-02T15:18:44.033Z,24.1
2023-07-02T15:20:41.356Z,24
2023-07-02T15:22:40.931Z,24
2023-07-02T15:24:43.441Z,24
2023-07-02T15:26:44.236Z,23.9
2023-07-02T15:28:43.166Z,23.9
2023-07-02T15:32:43.832Z,23.9
2023-07-02T15:34:40.653Z,24
2023-07-02T15:36:45.118Z,24.1
2023-07-02T15:38:44.036Z,24
2023-07-02T15:40:40.848Z,24.1
2023-07-02T15:42:43.851Z,24.1
2023-07-02T15:44:43.907Z,24.1
2023-07-02T15:46:43.749Z,24.1
2023-07-02T15:48:44.353Z,24.1
2023-07-02T15:50:45.733Z,24.1
2023-07-02T15:52:44.061Z,24.1
2023-07-02T15:54:44.027Z,24.1
2023-07-02T15:56:42.860Z,24
2023-07-02T15:58:43.942Z,23.9
2023-07-02T16:02:44.625Z,23.8
2023-07-02T16:04:42.106Z,23.8
2023-07-02T16:10:43.285Z,23.8
2023-07-02T16:12:44.048Z,23.9
2023-07-02T16:16:43.845Z,24
2023-07-02T16:20:43.288Z,23.9
2023-07-02T16:22:40.731Z,23.9
2023-07-02T16:24:44.272Z,24
2023-07-02T16:28:41.553Z,24
2023-07-02T16:34:43.408Z,24
2023-07-02T16:36:43.034Z,24
2023-07-02T16:38:44.337Z,24
2023-07-02T16:40:43.378Z,23.9
2023-07-02T16:42:42.693Z,23.8
2023-07-02T16:44:44.150Z,23.8
2023-07-02T16:46:44.211Z,23.9
2023-07-02T16:48:43.585Z,23.9
2023-07-02T16:50:42.789Z,23.9
2023-07-02T16:52:42.670Z,23.9
2023-07-02T16:58:42.366Z,23.9
2023-07-02T17:00:43.184Z,23.9
2023-07-02T17:02:45.917Z,23.9
2023-07-02T17:04:42.145Z,23.9
2023-07-02T17:06:44.387Z,23.7
2023-07-02T17:08:43.778Z,23.4
2023-07-02T17:10:42.880Z,23.2
2023-07-02T17:12:43.586Z,23.2
2023-07-02T17:14:43.868Z,23.2
2023-07-02T17:16:42.632Z,23.4
2023-07-02T17:18:43.251Z,23.3
2023-07-02T17:20:44.364Z,23.5
2023-07-02T17:22:42.939Z,23.4
2023-07-02T17:24:43.819Z,23.3
2023-07-02T17:26:43.545Z,23.3
2023-07-02T17:28:46.513Z,23.1
2023-07-02T17:30:44.061Z,23.2
2023-07-02T17:32:43.694Z,23.4
2023-07-02T17:34:41.081Z,23.4
2023-07-02T17:36:42.422Z,23.5
2023-07-02T17:38:43.557Z,23.5
2023-07-02T17:40:41.231Z,23.6
2023-07-02T17:42:43.497Z,23.6
2023-07-02T17:44:44.086Z,23.6
2023-07-02T17:46:42.022Z,23.6
2023-07-02T17:48:43.963Z,23.6
2023-07-02T17:50:43.703Z,23.5
2023-07-02T17:52:41.539Z,23
2023-07-02T17:54:44.097Z,22.8
2023-07-02T17:56:43.657Z,22.6
2023-07-02T17:58:41.130Z,22.7
2023-07-02T18:00:43.980Z,22.5
2023-07-02T18:04:43.893Z,22.2
2023-07-02T18:06:41.867Z,22.1
2023-07-02T18:08:43.095Z,22
2023-07-02T18:10:44.540Z,22
2023-07-02T18:14:43.827Z,21.8
2023-07-02T18:16:41.529Z,21.6
2023-07-02T18:18:44.186Z,21.5
2023-07-02T18:22:41.661Z,21.4
2023-07-02T18:28:43.029Z,21.7
2023-07-02T18:30:43.774Z,21.5
2023-07-02T18:32:43.617Z,21.4
2023-07-02T18:34:41.945Z,21.5
2023-07-02T18:36:43.798Z,21.3
2023-07-02T18:38:43.704Z,21.4
2023-07-02T18:40:41.066Z,21.2
2023-07-02T18:42:43.934Z,21.1
2023-07-02T18:44:43.098Z,21
2023-07-02T18:46:41.789Z,20.8
2023-07-02T18:48:47.202Z,20.8
2023-07-02T18:50:43.356Z,21
2023-07-02T18:52:40.897Z,20.8
2023-07-02T18:54:42.900Z,20.7
2023-07-02T18:56:44.452Z,20.6
2023-07-02T19:00:44.037Z,20.6
2023-07-02T19:02:44.395Z,20.4
2023-07-02T19:04:41.756Z,20.2
2023-07-02T19:06:43.806Z,20.1
2023-07-02T19:10:41.172Z,20
2023-07-02T19:12:43.785Z,20
2023-07-02T19:16:41.215Z,20.2
2023-07-02T19:20:43.987Z,20.1
2023-07-02T19:22:41.248Z,20.3
2023-07-02T19:24:43.038Z,20.1
2023-07-02T19:26:43.716Z,20.2
2023-07-02T19:28:43.323Z,20
2023-07-02T19:30:43.880Z,19.8
2023-07-02T19:34:41.231Z,19.7
2023-07-02T19:36:43.826Z,19.5
2023-07-02T19:38:43.703Z,19.5
2023-07-02T19:40:43.408Z,19.7
2023-07-02T19:42:43.698Z,19.7
2023-07-02T19:44:43.690Z,19.7
2023-07-02T19:46:43.661Z,19.7
2023-07-02T19:48:44.100Z,19.5
2023-07-02T19:50:43.758Z,19.7
2023-07-02T19:52:41.708Z,19.5
2023-07-02T19:58:43.219Z,19.5
2023-07-02T20:00:43.904Z,19.3
2023-07-02T20:02:43.796Z,19.3
2023-07-02T20:04:43.418Z,19.5
2023-07-02T20:06:43.571Z,19.3
2023-07-02T20:12:43.738Z,18.8
2023-07-02T20:14:47.150Z,18.9
2023-07-02T20:16:43.346Z,19.1
2023-07-02T20:18:43.740Z,19.1
2023-07-02T20:20:43.677Z,19.2
2023-07-02T20:22:42.910Z,19.2
2023-07-02T20:26:43.873Z,19
2023-07-02T20:28:42.582Z,19
2023-07-02T20:32:43.957Z,18.9
2023-07-02T20:34:41.964Z,19
2023-07-02T20:36:43.603Z,19.1
2023-07-02T20:38:44.123Z,18.8
2023-07-02T20:40:49.123Z,18.7
2023-07-02T20:42:43.752Z,18.7
2023-07-02T20:44:43.911Z,18.7
2023-07-02T20:46:41.134Z,18.9
2023-07-02T20:50:43.212Z,18.8
2023-07-02T20:52:41.841Z,18.8
2023-07-02T20:54:44.005Z,18.8
2023-07-02T20:56:43.808Z,18.6
2023-07-02T20:58:43.312Z,18.4
2023-07-02T21:00:53.724Z,18.5
2023-07-02T21:02:43.134Z,18.5
2023-07-02T21:04:43.390Z,18.4
2023-07-02T21:06:43.792Z,18.3
2023-07-02T21:08:43.732Z,18.1
2023-07-02T21:10:42.952Z,18.1
2023-07-02T21:12:43.546Z,18.2
2023-07-02T21:14:43.738Z,17.9
2023-07-02T21:16:42.072Z,18.1
2023-07-02T21:18:43.718Z,17.8
2023-07-02T21:20:44.182Z,17.7
2023-07-02T21:22:42.477Z,17.7
2023-07-02T21:24:44.186Z,17.8
2023-07-02T21:28:42.782Z,17.7
2023-07-02T21:30:44.047Z,17.8
2023-07-02T21:32:43.971Z,17.8
2023-07-02T21:34:41.587Z,17.7
2023-07-02T21:36:43.745Z,18.2
2023-07-02T21:38:43.414Z,17.8
2023-07-02T21:40:42.068Z,17.7
2023-07-02T21:42:43.349Z,17.5
2023-07-02T21:44:44.048Z,17.6
2023-07-02T21:46:44.713Z,17.5
2023-07-02T21:50:43.782Z,17.4
2023-07-02T21:52:42.165Z,17.6
2023-07-02T21:54:43.306Z,17.4
2023-07-02T21:56:43.912Z,17.7
2023-07-02T22:00:41.553Z,17.1
2023-07-02T22:04:43.176Z,17
2023-07-02T22:08:43.928Z,17
2023-07-02T22:10:42.432Z,16.8
2023-07-02T22:12:43.634Z,16.8
2023-07-02T22:14:41.544Z,16.8
2023-07-02T22:16:42.039Z,16.7
2023-07-02T22:18:43.923Z,16.7
2023-07-02T22:20:43.627Z,17.2
2023-07-02T22:22:43.532Z,16.8
2023-07-02T22:24:45.739Z,16.5
2023-07-02T22:26:44.225Z,16.5
2023-07-02T22:28:42.739Z,16.6
2023-07-02T22:30:43.940Z,16.4
2023-07-02T22:34:42.222Z,16.5
2023-07-02T22:38:43.861Z,16.4
2023-07-02T22:40:41.669Z,16.3
2023-07-02T22:42:43.680Z,16.4
2023-07-02T22:44:43.803Z,16.6
2023-07-02T22:46:43.380Z,16.4
2023-07-02T22:48:43.811Z,16.2
2023-07-02T22:50:43.430Z,16.2
2023-07-02T22:52:42.536Z,16.2
2023-07-02T22:56:43.798Z,16.2
2023-07-02T22:58:44.002Z,16.3
2023-07-02T23:02:44.155Z,16.3
2023-07-02T23:04:41.988Z,16.3
2023-07-02T23:06:43.799Z,16.3
2023-07-02T23:08:43.860Z,16.1
2023-07-02T23:10:43.402Z,15.9
2023-07-02T23:14:43.912Z,16.2
2023-07-02T23:16:42.971Z,16.1
2023-07-02T23:18:43.266Z,16.1
2023-07-02T23:20:43.773Z,16
2023-07-02T23:22:42.407Z,15.9
2023-07-02T23:24:43.032Z,15.8
2023-07-02T23:26:43.098Z,16
2023-07-02T23:28:41.047Z,16.1
2023-07-02T23:30:43.992Z,16
2023-07-02T23:34:41.616Z,16.1
2023-07-02T23:36:43.936Z,16.2
2023-07-02T23:38:43.412Z,16.2
2023-07-02T23:40:42.523Z,15.9
2023-07-02T23:42:43.769Z,16.1
2023-07-02T23:44:43.604Z,16.1
2023-07-02T23:46:42.551Z,15.8
2023-07-02T23:50:44.463Z,16
2023-07-02T23:52:42.824Z,16
2023-07-02T23:54:43.504Z,15.8
2023-07-02T23:56:43.697Z,15.7
2023-07-02T23:58:42.862Z,15.9
